Williamsville, MO (63967)

11:06 PM CDT on July 28, 2014 (GMT -0500)
Poplar Bluff 7 NW (KMOPOPLA3) Elev 449 ft | 36.83 °N, 90.52 °W | Change Station

Current weather conditions updated 2 seconds ago

Mostly Cloudy
Mostly Cloudy
69.9 °F
Feels Like 69.9 °F
N
3.0
Wind Variable Wind from North
Gusts 13.0 mph

Tomorrow is forecast to be Cooler than today.

Today
High -- | Low -- °F
--% Chance of Precip.
Yesterday
High -- | Low -- °F
Precip. -- in
6:04 AM 8:12 PM
Waxing Crescent, 4% visible
Pressure 30.08 in
Visibility 10.0 miles
Clouds Mostly Cloudy 7500 ft
Dew Point 59 °F
Humidity 68%
Rainfall 0.00 in
Snow Depth Not available.
UV 0 out of 12
Pollen 7.30 out of 12
Air Quality Not available.
Flu Activity Not available.
METAR KPOF 290353Z AUTO 03006KT 10SM BKN075 22/15 A3009 RMK AO2 SLP185 T02170150

More Conditions Fewer Conditions

Pressure 30.08 in
Visibility 10.0 miles
Clouds Mostly Cloudy 7500 ft
Dew Point 59 °F
Humidity 68%
Rainfall 0.00 in
Snow Depth Not available.
UV 0 out of 12
Pollen 7.30 out of 12
Air Quality Not available.
Flu Activity Not available.
METAR KPOF 290353Z AUTO 03006KT 10SM BKN075 22/15 A3009 RMK AO2 SLP185 T02170150

More Conditions Fewer Conditions

10-Day Weather Forecast

Almanac

Astronomy

Jul. 28, 2014 Rise Set
Actual Time 6:04 AM CDT 8:12 PM CDT
Civil Twilight 5:35 AM CDT 8:41 PM CDT
Nautical Twilight 4:59 AM CDT 9:16 PM CDT
Astronomical Twilight 4:21 AM CDT 9:55 PM CDT
Moon 7:41 AM CDT (7/28) 8:58 PM CDT (7/28)
Length of Visible Light 15h 06m
Length of Day
14h 08m
Tomorrow will be 1m 40s shorter.
Waxing Crescent, 4% of the Moon is Illuminated
Jul 29
Waxing Crescent
Aug 3
First Quarter
Aug 10
Full
Aug 17
Last Quarter
Aug 25
New

Today's Extremes

State Highs State Lows

Community

WunderPhotos

Upload Photos

1,738,626 photos uploaded!

Nearby

Snow Depth

Station Depth Elevation
No new snow has been reported.

Earthquake Activity

City Distance Mag. Time & Date
No recent earthquake activity has been reported nearby.
Minimum magnitude displayed is 2.5.

Coastal Water Temperatures

Place Temperature
No Stations Reporting

Nearby Weather Stations

Station Location Temp. Heat Index Dew Point Humidity Wind Precip. Elev Updated Type
MesoWest WILVIL , Mill Spring, MO 64 °F - - - North  at  - 0.00 in / hr 414 ft 9:55 PM CDT MADIS
Poplar Bluff 7 NW, Poplar Bluff, MO 69.9 °F - 59 °F 68% North  at  3.0 mph 0.00 in / hr 449 ft 11:06 PM CDT Rapid Fire
Peaceful Acres, Poplar Bluff, MO 69.2 °F - 63 °F 80% NE  at  0.0 mph 0.00 in / hr 338 ft 11:06 PM CDT Rapid Fire
Inman Acres, Poplar Bluff, MO 70.5 °F 73 °F 62 °F 75% North  at  2.0 mph 0.00 in / hr 341 ft 11:06 PM CDT Rapid Fire
RAWS PIEDMONT MO, Cascade, MO 67 °F - 59 °F 76% NE  at  1 mph 0.00 in / hr 839 ft 10:30 PM CDT MADIS

Show More Stations Show Fewer Stations